sensor_id;sensor_type;location;lat;lon;timestamp;P1;durP1;ratioP1;P2;durP2;ratioP2
80621;SDS011;69980;51.914;7.526;2023-07-13T00:01:35;4.25;;;2.30;;
80621;SDS011;69980;51.914;7.526;2023-07-13T00:04:01;5.10;;;2.60;;
80621;SDS011;69980;51.914;7.526;2023-07-13T00:06:26;6.38;;;3.10;;
80621;SDS011;69980;51.914;7.526;2023-07-13T00:08:51;5.22;;;2.78;;
80621;SDS011;69980;51.914;7.526;2023-07-13T00:11:16;5.03;;;2.55;;
80621;SDS011;69980;51.914;7.526;2023-07-13T00:13:42;4.40;;;2.90;;
80621;SDS011;69980;51.914;7.526;2023-07-13T00:16:08;5.75;;;2.80;;
80621;SDS011;69980;51.914;7.526;2023-07-13T00:18:34;5.47;;;2.53;;
80621;SDS011;69980;51.914;7.526;2023-07-13T00:20:59;3.88;;;2.42;;
80621;SDS011;69980;51.914;7.526;2023-07-13T00:23:25;4.22;;;2.40;;
80621;SDS011;69980;51.914;7.526;2023-07-13T00:25:50;4.10;;;2.25;;
80621;SDS011;69980;51.914;7.526;2023-07-13T00:28:15;2.95;;;2.30;;
80621;SDS011;69980;51.914;7.526;2023-07-13T00:30:40;4.75;;;2.58;;
80621;SDS011;69980;51.914;7.526;2023-07-13T00:33:06;4.55;;;2.40;;
80621;SDS011;69980;51.914;7.526;2023-07-13T00:35:33;5.63;;;2.22;;
80621;SDS011;69980;51.914;7.526;2023-07-13T00:37:59;5.45;;;2.60;;
80621;SDS011;69980;51.914;7.526;2023-07-13T00:40:24;5.30;;;2.40;;
80621;SDS011;69980;51.914;7.526;2023-07-13T00:42:51;5.28;;;2.65;;
80621;SDS011;69980;51.914;7.526;2023-07-13T00:47:43;4.33;;;2.63;;
80621;SDS011;69980;51.914;7.526;2023-07-13T00:50:09;6.75;;;2.63;;
80621;SDS011;69980;51.914;7.526;2023-07-13T00:52:37;4.13;;;2.13;;
80621;SDS011;69980;51.914;7.526;2023-07-13T00:55:04;6.55;;;2.40;;
80621;SDS011;69980;51.914;7.526;2023-07-13T00:57:30;6.78;;;2.60;;
80621;SDS011;69980;51.914;7.526;2023-07-13T00:59:58;5.82;;;2.83;;
80621;SDS011;69980;51.914;7.526;2023-07-13T01:02:25;5.60;;;2.63;;
80621;SDS011;69980;51.914;7.526;2023-07-13T01:04:51;5.38;;;2.70;;
80621;SDS011;69980;51.914;7.526;2023-07-13T01:07:16;4.93;;;2.47;;
80621;SDS011;69980;51.914;7.526;2023-07-13T01:09:43;6.65;;;2.78;;
80621;SDS011;69980;51.914;7.526;2023-07-13T01:12:08;6.70;;;2.95;;
80621;SDS011;69980;51.914;7.526;2023-07-13T01:14:33;5.35;;;2.72;;
80621;SDS011;69980;51.914;7.526;2023-07-13T01:16:59;5.60;;;2.83;;
80621;SDS011;69980;51.914;7.526;2023-07-13T01:19:32;5.05;;;2.50;;
80621;SDS011;69980;51.914;7.526;2023-07-13T01:22:00;6.15;;;3.03;;
80621;SDS011;69980;51.914;7.526;2023-07-13T01:24:25;7.82;;;3.22;;
80621;SDS011;69980;51.914;7.526;2023-07-13T01:26:51;10.38;;;2.60;;
80621;SDS011;69980;51.914;7.526;2023-07-13T01:29:16;6.65;;;2.90;;
80621;SDS011;69980;51.914;7.526;2023-07-13T01:31:41;7.55;;;3.20;;
80621;SDS011;69980;51.914;7.526;2023-07-13T01:34:07;5.85;;;2.80;;
80621;SDS011;69980;51.914;7.526;2023-07-13T01:36:32;6.75;;;3.13;;
80621;SDS011;69980;51.914;7.526;2023-07-13T01:38:57;5.65;;;2.80;;
80621;SDS011;69980;51.914;7.526;2023-07-13T01:41:23;5.90;;;2.80;;
80621;SDS011;69980;51.914;7.526;2023-07-13T01:43:48;7.15;;;2.85;;
80621;SDS011;69980;51.914;7.526;2023-07-13T01:46:13;6.80;;;2.92;;
80621;SDS011;69980;51.914;7.526;2023-07-13T01:48:39;7.40;;;3.30;;
80621;SDS011;69980;51.914;7.526;2023-07-13T01:51:04;6.65;;;2.70;;
80621;SDS011;69980;51.914;7.526;2023-07-13T01:53:29;7.22;;;3.03;;
80621;SDS011;69980;51.914;7.526;2023-07-13T01:55:55;7.40;;;3.00;;
80621;SDS011;69980;51.914;7.526;2023-07-13T01:58:20;6.05;;;2.60;;
80621;SDS011;69980;51.914;7.526;2023-07-13T02:00:47;5.05;;;2.78;;
80621;SDS011;69980;51.914;7.526;2023-07-13T02:03:13;5.68;;;2.80;;
80621;SDS011;69980;51.914;7.526;2023-07-13T02:05:39;6.18;;;2.70;;
80621;SDS011;69980;51.914;7.526;2023-07-13T02:08:05;6.30;;;2.78;;
80621;SDS011;69980;51.914;7.526;2023-07-13T02:10:30;5.65;;;2.70;;
80621;SDS011;69980;51.914;7.526;2023-07-13T02:12:55;10.07;;;2.90;;
80621;SDS011;69980;51.914;7.526;2023-07-13T02:15:21;6.43;;;2.92;;
80621;SDS011;69980;51.914;7.526;2023-07-13T02:17:46;6.20;;;3.00;;
80621;SDS011;69980;51.914;7.526;2023-07-13T02:20:12;5.80;;;3.20;;
80621;SDS011;69980;51.914;7.526;2023-07-13T02:22:37;5.40;;;2.95;;
80621;SDS011;69980;51.914;7.526;2023-07-13T02:25:02;6.68;;;3.17;;
80621;SDS011;69980;51.914;7.526;2023-07-13T02:27:28;6.03;;;2.97;;
80621;SDS011;69980;51.914;7.526;2023-07-13T02:29:53;6.78;;;3.35;;
80621;SDS011;69980;51.914;7.526;2023-07-13T02:32:18;7.65;;;3.13;;
80621;SDS011;69980;51.914;7.526;2023-07-13T02:34:44;5.80;;;3.03;;
80621;SDS011;69980;51.914;7.526;2023-07-13T02:37:09;7.28;;;3.20;;
80621;SDS011;69980;51.914;7.526;2023-07-13T02:39:34;7.00;;;3.00;;
80621;SDS011;69980;51.914;7.526;2023-07-13T02:42:00;4.63;;;2.78;;
80621;SDS011;69980;51.914;7.526;2023-07-13T02:44:25;7.05;;;3.05;;
80621;SDS011;69980;51.914;7.526;2023-07-13T02:46:51;6.40;;;3.08;;
80621;SDS011;69980;51.914;7.526;2023-07-13T02:49:16;6.50;;;3.00;;
80621;SDS011;69980;51.914;7.526;2023-07-13T02:51:41;4.60;;;2.30;;
80621;SDS011;69980;51.914;7.526;2023-07-13T02:54:07;6.72;;;2.80;;
80621;SDS011;69980;51.914;7.526;2023-07-13T02:56:32;5.97;;;2.83;;
80621;SDS011;69980;51.914;7.526;2023-07-13T02:58:57;8.77;;;2.53;;
80621;SDS011;69980;51.914;7.526;2023-07-13T03:01:23;6.22;;;2.75;;
80621;SDS011;69980;51.914;7.526;2023-07-13T03:03:50;6.15;;;2.33;;
80621;SDS011;69980;51.914;7.526;2023-07-13T03:06:15;6.25;;;2.47;;
80621;SDS011;69980;51.914;7.526;2023-07-13T03:08:41;5.32;;;2.40;;
80621;SDS011;69980;51.914;7.526;2023-07-13T03:11:10;8.30;;;2.60;;
80621;SDS011;69980;51.914;7.526;2023-07-13T03:13:37;5.03;;;2.05;;
80621;SDS011;69980;51.914;7.526;2023-07-13T03:16:03;5.68;;;2.10;;
80621;SDS011;69980;51.914;7.526;2023-07-13T03:18:29;5.53;;;2.08;;
80621;SDS011;69980;51.914;7.526;2023-07-13T03:20:54;5.70;;;2.25;;
80621;SDS011;69980;51.914;7.526;2023-07-13T03:23:20;5.63;;;2.28;;
80621;SDS011;69980;51.914;7.526;2023-07-13T03:25:46;5.20;;;1.98;;
80621;SDS011;69980;51.914;7.526;2023-07-13T03:28:12;6.32;;;2.50;;
80621;SDS011;69980;51.914;7.526;2023-07-13T03:30:37;6.90;;;2.00;;
80621;SDS011;69980;51.914;7.526;2023-07-13T03:33:02;5.60;;;2.05;;
80621;SDS011;69980;51.914;7.526;2023-07-13T03:35:28;3.20;;;1.83;;
80621;SDS011;69980;51.914;7.526;2023-07-13T03:37:53;5.60;;;2.30;;
80621;SDS011;69980;51.914;7.526;2023-07-13T03:40:18;4.85;;;2.13;;
80621;SDS011;69980;51.914;7.526;2023-07-13T03:42:44;6.30;;;2.05;;
80621;SDS011;69980;51.914;7.526;2023-07-13T03:45:09;4.45;;;1.90;;
80621;SDS011;69980;51.914;7.526;2023-07-13T03:47:34;5.15;;;2.00;;
80621;SDS011;69980;51.914;7.526;2023-07-13T03:50:00;9.02;;;1.88;;
80621;SDS011;69980;51.914;7.526;2023-07-13T03:52:25;5.55;;;1.77;;
80621;SDS011;69980;51.914;7.526;2023-07-13T03:54:50;5.30;;;1.80;;
80621;SDS011;69980;51.914;7.526;2023-07-13T03:57:16;7.28;;;1.70;;
80621;SDS011;69980;51.914;7.526;2023-07-13T03:59:41;6.65;;;1.60;;
80621;SDS011;69980;51.914;7.526;2023-07-13T04:02:06;7.88;;;2.03;;
80621;SDS011;69980;51.914;7.526;2023-07-13T04:04:32;4.32;;;1.77;;
80621;SDS011;69980;51.914;7.526;2023-07-13T04:06:57;5.97;;;1.60;;
80621;SDS011;69980;51.914;7.526;2023-07-13T04:09:23;5.35;;;1.92;;
80621;SDS011;69980;51.914;7.526;2023-07-13T04:11:48;5.50;;;1.67;;
80621;SDS011;69980;51.914;7.526;2023-07-13T04:14:13;5.13;;;1.77;;
80621;SDS011;69980;51.914;7.526;2023-07-13T04:16:38;5.82;;;2.00;;
80621;SDS011;69980;51.914;7.526;2023-07-13T04:19:04;5.72;;;1.90;;
80621;SDS011;69980;51.914;7.526;2023-07-13T04:21:30;6.35;;;1.85;;
80621;SDS011;69980;51.914;7.526;2023-07-13T04:23:56;4.65;;;1.55;;
80621;SDS011;69980;51.914;7.526;2023-07-13T04:26:21;6.35;;;1.90;;
80621;SDS011;69980;51.914;7.526;2023-07-13T04:28:47;5.03;;;1.70;;
80621;SDS011;69980;51.914;7.526;2023-07-13T04:31:12;4.93;;;1.98;;
80621;SDS011;69980;51.914;7.526;2023-07-13T04:33:38;7.18;;;1.92;;
80621;SDS011;69980;51.914;7.526;2023-07-13T04:36:04;6.90;;;2.00;;
80621;SDS011;69980;51.914;7.526;2023-07-13T04:38:30;4.90;;;1.85;;
80621;SDS011;69980;51.914;7.526;2023-07-13T04:40:57;5.90;;;1.90;;
80621;SDS011;69980;51.914;7.526;2023-07-13T04:43:24;6.93;;;2.13;;
80621;SDS011;69980;51.914;7.526;2023-07-13T04:45:50;7.07;;;1.95;;
80621;SDS011;69980;51.914;7.526;2023-07-13T04:48:16;5.97;;;1.70;;
80621;SDS011;69980;51.914;7.526;2023-07-13T04:50:41;3.60;;;1.65;;
80621;SDS011;69980;51.914;7.526;2023-07-13T04:53:06;5.57;;;1.80;;
80621;SDS011;69980;51.914;7.526;2023-07-13T04:55:32;6.15;;;1.67;;
80621;SDS011;69980;51.914;7.526;2023-07-13T04:57:57;5.35;;;1.80;;
80621;SDS011;69980;51.914;7.526;2023-07-13T05:00:22;5.72;;;1.60;;
80621;SDS011;69980;51.914;7.526;2023-07-13T05:02:48;7.95;;;1.80;;
80621;SDS011;69980;51.914;7.526;2023-07-13T05:05:13;5.03;;;1.65;;
80621;SDS011;69980;51.914;7.526;2023-07-13T05:07:38;4.80;;;1.65;;
80621;SDS011;69980;51.914;7.526;2023-07-13T05:10:04;8.45;;;1.90;;
80621;SDS011;69980;51.914;7.526;2023-07-13T05:12:30;8.15;;;2.03;;
80621;SDS011;69980;51.914;7.526;2023-07-13T05:14:55;5.80;;;1.65;;
80621;SDS011;69980;51.914;7.526;2023-07-13T05:17:21;7.57;;;2.00;;
80621;SDS011;69980;51.914;7.526;2023-07-13T05:19:46;8.50;;;2.10;;
80621;SDS011;69980;51.914;7.526;2023-07-13T05:22:11;7.18;;;2.25;;
80621;SDS011;69980;51.914;7.526;2023-07-13T05:24:36;5.95;;;1.60;;
80621;SDS011;69980;51.914;7.526;2023-07-13T05:27:02;6.28;;;1.80;;
80621;SDS011;69980;51.914;7.526;2023-07-13T05:29:27;6.97;;;2.08;;
80621;SDS011;69980;51.914;7.526;2023-07-13T05:31:52;9.05;;;2.10;;
80621;SDS011;69980;51.914;7.526;2023-07-13T05:34:18;6.70;;;1.83;;
80621;SDS011;69980;51.914;7.526;2023-07-13T05:36:43;6.00;;;1.95;;
80621;SDS011;69980;51.914;7.526;2023-07-13T05:39:08;7.97;;;2.30;;
80621;SDS011;69980;51.914;7.526;2023-07-13T05:41:34;8.88;;;2.13;;
80621;SDS011;69980;51.914;7.526;2023-07-13T05:44:00;6.93;;;2.05;;
80621;SDS011;69980;51.914;7.526;2023-07-13T05:46:25;6.28;;;2.00;;
80621;SDS011;69980;51.914;7.526;2023-07-13T05:48:51;5.13;;;1.75;;
80621;SDS011;69980;51.914;7.526;2023-07-13T05:51:16;7.13;;;2.20;;
80621;SDS011;69980;51.914;7.526;2023-07-13T05:53:41;7.60;;;2.00;;
80621;SDS011;69980;51.914;7.526;2023-07-13T05:56:06;8.60;;;2.15;;
80621;SDS011;69980;51.914;7.526;2023-07-13T05:58:32;7.30;;;2.13;;
80621;SDS011;69980;51.914;7.526;2023-07-13T06:01:03;10.57;;;2.78;;
80621;SDS011;69980;51.914;7.526;2023-07-13T06:03:30;9.00;;;2.22;;
80621;SDS011;69980;51.914;7.526;2023-07-13T06:05:55;8.43;;;2.03;;
80621;SDS011;69980;51.914;7.526;2023-07-13T06:08:20;8.25;;;2.42;;
80621;SDS011;69980;51.914;7.526;2023-07-13T06:10:47;6.63;;;2.40;;
80621;SDS011;69980;51.914;7.526;2023-07-13T06:13:12;7.40;;;2.20;;
80621;SDS011;69980;51.914;7.526;2023-07-13T06:15:37;7.40;;;2.10;;
80621;SDS011;69980;51.914;7.526;2023-07-13T06:18:02;7.75;;;2.13;;
80621;SDS011;69980;51.914;7.526;2023-07-13T06:20:28;10.80;;;2.28;;
80621;SDS011;69980;51.914;7.526;2023-07-13T06:22:54;7.78;;;2.70;;
80621;SDS011;69980;51.914;7.526;2023-07-13T06:25:19;7.05;;;2.15;;
80621;SDS011;69980;51.914;7.526;2023-07-13T06:27:44;7.43;;;2.60;;
80621;SDS011;69980;51.914;7.526;2023-07-13T06:30:10;10.07;;;2.63;;
80621;SDS011;69980;51.914;7.526;2023-07-13T06:32:36;9.90;;;2.58;;
80621;SDS011;69980;51.914;7.526;2023-07-13T06:35:01;9.07;;;2.40;;
80621;SDS011;69980;51.914;7.526;2023-07-13T06:37:26;8.43;;;2.25;;
80621;SDS011;69980;51.914;7.526;2023-07-13T06:39:52;9.02;;;2.55;;
80621;SDS011;69980;51.914;7.526;2023-07-13T06:42:17;7.68;;;2.55;;
80621;SDS011;69980;51.914;7.526;2023-07-13T06:44:42;8.77;;;2.40;;
80621;SDS011;69980;51.914;7.526;2023-07-13T06:47:08;8.60;;;2.20;;
80621;SDS011;69980;51.914;7.526;2023-07-13T06:49:33;8.65;;;2.45;;
80621;SDS011;69980;51.914;7.526;2023-07-13T06:51:58;8.00;;;2.30;;
80621;SDS011;69980;51.914;7.526;2023-07-13T06:54:23;7.47;;;2.10;;
80621;SDS011;69980;51.914;7.526;2023-07-13T06:56:49;7.75;;;2.20;;
80621;SDS011;69980;51.914;7.526;2023-07-13T06:59:14;9.82;;;2.35;;
80621;SDS011;69980;51.914;7.526;2023-07-13T07:01:39;6.93;;;2.30;;
80621;SDS011;69980;51.914;7.526;2023-07-13T07:04:05;6.53;;;2.03;;
80621;SDS011;69980;51.914;7.526;2023-07-13T07:06:30;8.40;;;2.10;;
80621;SDS011;69980;51.914;7.526;2023-07-13T07:08:55;9.18;;;2.20;;
80621;SDS011;69980;51.914;7.526;2023-07-13T07:11:22;6.72;;;1.90;;
80621;SDS011;69980;51.914;7.526;2023-07-13T07:13:49;8.93;;;2.17;;
80621;SDS011;69980;51.914;7.526;2023-07-13T07:16:15;7.70;;;2.13;;
80621;SDS011;69980;51.914;7.526;2023-07-13T07:18:40;8.77;;;2.20;;
80621;SDS011;69980;51.914;7.526;2023-07-13T07:21:06;7.40;;;2.22;;
80621;SDS011;69980;51.914;7.526;2023-07-13T07:23:31;6.68;;;1.98;;
80621;SDS011;69980;51.914;7.526;2023-07-13T07:25:56;6.68;;;2.05;;
80621;SDS011;69980;51.914;7.526;2023-07-13T07:28:22;6.38;;;2.15;;
80621;SDS011;69980;51.914;7.526;2023-07-13T07:30:47;7.05;;;2.00;;
80621;SDS011;69980;51.914;7.526;2023-07-13T07:33:14;8.00;;;2.58;;
80621;SDS011;69980;51.914;7.526;2023-07-13T07:35:39;8.40;;;2.35;;
80621;SDS011;69980;51.914;7.526;2023-07-13T07:38:05;8.45;;;2.58;;
80621;SDS011;69980;51.914;7.526;2023-07-13T07:40:30;8.70;;;2.30;;
80621;SDS011;69980;51.914;7.526;2023-07-13T07:42:56;7.47;;;2.50;;
80621;SDS011;69980;51.914;7.526;2023-07-13T07:45:22;7.63;;;2.47;;
80621;SDS011;69980;51.914;7.526;2023-07-13T07:47:47;6.53;;;2.30;;
80621;SDS011;69980;51.914;7.526;2023-07-13T07:50:13;7.82;;;2.55;;
80621;SDS011;69980;51.914;7.526;2023-07-13T07:52:38;10.10;;;3.08;;
80621;SDS011;69980;51.914;7.526;2023-07-13T07:55:04;6.72;;;2.88;;
80621;SDS011;69980;51.914;7.526;2023-07-13T07:57:30;8.85;;;3.15;;
80621;SDS011;69980;51.914;7.526;2023-07-13T07:59:55;8.73;;;3.30;;
80621;SDS011;69980;51.914;7.526;2023-07-13T08:02:21;9.25;;;3.83;;
80621;SDS011;69980;51.914;7.526;2023-07-13T08:04:46;9.73;;;4.07;;
80621;SDS011;69980;51.914;7.526;2023-07-13T08:07:11;8.73;;;3.65;;
80621;SDS011;69980;51.914;7.526;2023-07-13T08:09:37;8.02;;;4.00;;
80621;SDS011;69980;51.914;7.526;2023-07-13T08:12:02;7.60;;;3.83;;
80621;SDS011;69980;51.914;7.526;2023-07-13T08:14:27;8.38;;;3.33;;
80621;SDS011;69980;51.914;7.526;2023-07-13T08:16:53;10.85;;;3.90;;
80621;SDS011;69980;51.914;7.526;2023-07-13T08:19:18;7.13;;;3.50;;
80621;SDS011;69980;51.914;7.526;2023-07-13T08:21:43;7.50;;;3.80;;
80621;SDS011;69980;51.914;7.526;2023-07-13T08:24:09;9.60;;;3.35;;
80621;SDS011;69980;51.914;7.526;2023-07-13T08:26:34;9.35;;;3.30;;
80621;SDS011;69980;51.914;7.526;2023-07-13T08:29:00;9.27;;;3.95;;
80621;SDS011;69980;51.914;7.526;2023-07-13T08:31:25;7.65;;;3.78;;
80621;SDS011;69980;51.914;7.526;2023-07-13T08:33:50;9.93;;;3.30;;
80621;SDS011;69980;51.914;7.526;2023-07-13T08:36:15;7.97;;;3.10;;
80621;SDS011;69980;51.914;7.526;2023-07-13T08:38:41;9.98;;;3.33;;
80621;SDS011;69980;51.914;7.526;2023-07-13T08:41:10;7.43;;;3.58;;
80621;SDS011;69980;51.914;7.526;2023-07-13T08:43:41;8.43;;;3.47;;
80621;SDS011;69980;51.914;7.526;2023-07-13T08:49:02;8.10;;;2.85;;
80621;SDS011;69980;51.914;7.526;2023-07-13T08:56:53;9.20;;;2.90;;
80621;SDS011;69980;51.914;7.526;2023-07-13T08:59:19;8.15;;;3.10;;
80621;SDS011;69980;51.914;7.526;2023-07-13T09:01:51;8.27;;;2.90;;
80621;SDS011;69980;51.914;7.526;2023-07-13T09:04:42;7.90;;;3.00;;
80621;SDS011;69980;51.914;7.526;2023-07-13T09:07:17;7.78;;;2.72;;
80621;SDS011;69980;51.914;7.526;2023-07-13T09:15:37;8.48;;;2.70;;
80621;SDS011;69980;51.914;7.526;2023-07-13T09:20:50;7.95;;;2.60;;
80621;SDS011;69980;51.914;7.526;2023-07-13T09:23:22;6.13;;;2.38;;
80621;SDS011;69980;51.914;7.526;2023-07-13T09:25:49;7.63;;;2.22;;
80621;SDS011;69980;51.914;7.526;2023-07-13T09:28:25;8.60;;;2.45;;
80621;SDS011;69980;51.914;7.526;2023-07-13T09:31:01;6.07;;;1.95;;
80621;SDS011;69980;51.914;7.526;2023-07-13T09:33:29;9.23;;;2.63;;
80621;SDS011;69980;51.914;7.526;2023-07-13T09:35:55;7.45;;;2.08;;
80621;SDS011;69980;51.914;7.526;2023-07-13T09:38:21;7.00;;;2.40;;
80621;SDS011;69980;51.914;7.526;2023-07-13T09:46:31;5.57;;;2.00;;
80621;SDS011;69980;51.914;7.526;2023-07-13T09:48:56;7.43;;;2.22;;
80621;SDS011;69980;51.914;7.526;2023-07-13T09:51:22;7.30;;;2.40;;
80621;SDS011;69980;51.914;7.526;2023-07-13T09:53:47;6.60;;;2.30;;
80621;SDS011;69980;51.914;7.526;2023-07-13T09:56:19;7.45;;;2.60;;
80621;SDS011;69980;51.914;7.526;2023-07-13T09:58:46;6.28;;;2.40;;
80621;SDS011;69980;51.914;7.526;2023-07-13T10:01:11;6.45;;;2.47;;
80621;SDS011;69980;51.914;7.526;2023-07-13T10:03:36;8.50;;;2.35;;
80621;SDS011;69980;51.914;7.526;2023-07-13T10:06:12;5.25;;;1.83;;
80621;SDS011;69980;51.914;7.526;2023-07-13T10:08:39;7.43;;;2.50;;
80621;SDS011;69980;51.914;7.526;2023-07-13T10:11:22;5.47;;;2.20;;
80621;SDS011;69980;51.914;7.526;2023-07-13T10:13:53;8.00;;;2.65;;
80621;SDS011;69980;51.914;7.526;2023-07-13T10:16:20;5.00;;;2.00;;
80621;SDS011;69980;51.914;7.526;2023-07-13T10:21:18;5.95;;;2.50;;
80621;SDS011;69980;51.914;7.526;2023-07-13T10:24:06;9.98;;;3.00;;
80621;SDS011;69980;51.914;7.526;2023-07-13T10:26:43;5.63;;;2.45;;
80621;SDS011;69980;51.914;7.526;2023-07-13T10:29:27;5.65;;;2.50;;
80621;SDS011;69980;51.914;7.526;2023-07-13T10:31:53;5.57;;;2.60;;
80621;SDS011;69980;51.914;7.526;2023-07-13T10:34:19;8.88;;;2.47;;
80621;SDS011;69980;51.914;7.526;2023-07-13T10:36:45;8.35;;;2.92;;
80621;SDS011;69980;51.914;7.526;2023-07-13T10:39:22;6.47;;;2.70;;
80621;SDS011;69980;51.914;7.526;2023-07-13T10:41:52;8.45;;;2.38;;
80621;SDS011;69980;51.914;7.526;2023-07-13T10:44:29;6.10;;;2.47;;
80621;SDS011;69980;51.914;7.526;2023-07-13T10:46:57;5.97;;;2.20;;
80621;SDS011;69980;51.914;7.526;2023-07-13T10:49:26;5.80;;;2.00;;
80621;SDS011;69980;51.914;7.526;2023-07-13T10:51:52;4.60;;;1.80;;
80621;SDS011;69980;51.914;7.526;2023-07-13T10:54:19;7.10;;;2.00;;
80621;SDS011;69980;51.914;7.526;2023-07-13T10:56:45;4.55;;;1.90;;
80621;SDS011;69980;51.914;7.526;2023-07-13T10:59:24;5.82;;;2.00;;
80621;SDS011;69980;51.914;7.526;2023-07-13T11:04:29;6.20;;;2.38;;
80621;SDS011;69980;51.914;7.526;2023-07-13T11:06:58;5.97;;;2.00;;
80621;SDS011;69980;51.914;7.526;2023-07-13T11:11:53;5.20;;;1.75;;
80621;SDS011;69980;51.914;7.526;2023-07-13T11:17:23;5.53;;;2.15;;
80621;SDS011;69980;51.914;7.526;2023-07-13T11:19:50;5.68;;;1.65;;
80621;SDS011;69980;51.914;7.526;2023-07-13T11:22:16;5.85;;;1.90;;
80621;SDS011;69980;51.914;7.526;2023-07-13T11:27:36;4.63;;;1.73;;
80621;SDS011;69980;51.914;7.526;2023-07-13T11:30:09;5.68;;;2.00;;
80621;SDS011;69980;51.914;7.526;2023-07-13T11:32:49;4.53;;;1.50;;
80621;SDS011;69980;51.914;7.526;2023-07-13T11:35:36;5.45;;;1.80;;
80621;SDS011;69980;51.914;7.526;2023-07-13T11:38:02;4.93;;;1.70;;
80621;SDS011;69980;51.914;7.526;2023-07-13T11:40:28;5.60;;;1.98;;
80621;SDS011;69980;51.914;7.526;2023-07-13T11:43:01;5.47;;;1.60;;
80621;SDS011;69980;51.914;7.526;2023-07-13T11:45:27;4.25;;;1.50;;
80621;SDS011;69980;51.914;7.526;2023-07-13T11:47:52;4.32;;;1.58;;
80621;SDS011;69980;51.914;7.526;2023-07-13T11:50:21;4.93;;;1.80;;
80621;SDS011;69980;51.914;7.526;2023-07-13T11:52:49;12.23;;;2.00;;
80621;SDS011;69980;51.914;7.526;2023-07-13T11:55:16;4.75;;;1.50;;
80621;SDS011;69980;51.914;7.526;2023-07-13T11:57:54;3.70;;;1.33;;
80621;SDS011;69980;51.914;7.526;2023-07-13T12:00:23;4.70;;;1.73;;
80621;SDS011;69980;51.914;7.526;2023-07-13T12:02:52;6.68;;;1.90;;
80621;SDS011;69980;51.914;7.526;2023-07-13T12:05:20;4.60;;;2.00;;
80621;SDS011;69980;51.914;7.526;2023-07-13T12:07:47;3.78;;;1.77;;
80621;SDS011;69980;51.914;7.526;2023-07-13T12:12:58;6.68;;;1.90;;
80621;SDS011;69980;51.914;7.526;2023-07-13T12:15:36;6.85;;;1.95;;
80621;SDS011;69980;51.914;7.526;2023-07-13T12:18:09;4.82;;;1.88;;
80621;SDS011;69980;51.914;7.526;2023-07-13T12:20:37;5.05;;;1.83;;
80621;SDS011;69980;51.914;7.526;2023-07-13T12:23:10;4.72;;;2.00;;
80621;SDS011;69980;51.914;7.526;2023-07-13T12:25:54;6.15;;;2.00;;
80621;SDS011;69980;51.914;7.526;2023-07-13T12:29:06;4.93;;;2.00;;
80621;SDS011;69980;51.914;7.526;2023-07-13T12:31:47;6.22;;;2.03;;
80621;SDS011;69980;51.914;7.526;2023-07-13T12:34:15;5.80;;;2.05;;
80621;SDS011;69980;51.914;7.526;2023-07-13T12:44:45;5.03;;;1.83;;
80621;SDS011;69980;51.914;7.526;2023-07-13T12:47:11;5.47;;;2.05;;
80621;SDS011;69980;51.914;7.526;2023-07-13T12:49:40;6.53;;;2.05;;
80621;SDS011;69980;51.914;7.526;2023-07-13T12:52:14;5.70;;;2.40;;
80621;SDS011;69980;51.914;7.526;2023-07-13T12:54:41;5.20;;;2.10;;
80621;SDS011;69980;51.914;7.526;2023-07-13T12:57:08;4.80;;;2.13;;
80621;SDS011;69980;51.914;7.526;2023-07-13T12:59:39;6.28;;;2.00;;
80621;SDS011;69980;51.914;7.526;2023-07-13T13:02:09;4.43;;;2.10;;
80621;SDS011;69980;51.914;7.526;2023-07-13T13:04:46;5.20;;;2.05;;
80621;SDS011;69980;51.914;7.526;2023-07-13T13:07:13;5.95;;;2.00;;
80621;SDS011;69980;51.914;7.526;2023-07-13T13:09:38;5.13;;;2.10;;
80621;SDS011;69980;51.914;7.526;2023-07-13T13:12:03;5.25;;;1.98;;
80621;SDS011;69980;51.914;7.526;2023-07-13T13:14:29;6.50;;;2.13;;
80621;SDS011;69980;51.914;7.526;2023-07-13T13:16:54;8.05;;;2.38;;
80621;SDS011;69980;51.914;7.526;2023-07-13T13:19:23;5.55;;;1.65;;
80621;SDS011;69980;51.914;7.526;2023-07-13T13:21:52;4.65;;;1.60;;
80621;SDS011;69980;51.914;7.526;2023-07-13T13:24:20;4.15;;;1.50;;
80621;SDS011;69980;51.914;7.526;2023-07-13T13:26:46;2.90;;;1.30;;
80621;SDS011;69980;51.914;7.526;2023-07-13T13:29:16;2.90;;;1.33;;
80621;SDS011;69980;51.914;7.526;2023-07-13T13:31:45;3.88;;;1.60;;
80621;SDS011;69980;51.914;7.526;2023-07-13T13:34:12;2.65;;;1.30;;
80621;SDS011;69980;51.914;7.526;2023-07-13T13:36:38;4.00;;;2.10;;
80621;SDS011;69980;51.914;7.526;2023-07-13T13:39:16;4.88;;;2.33;;
80621;SDS011;69980;51.914;7.526;2023-07-13T13:41:44;3.80;;;1.80;;
80621;SDS011;69980;51.914;7.526;2023-07-13T13:44:10;6.32;;;2.35;;
80621;SDS011;69980;51.914;7.526;2023-07-13T13:46:35;5.00;;;2.42;;
80621;SDS011;69980;51.914;7.526;2023-07-13T13:49:01;4.65;;;2.05;;
80621;SDS011;69980;51.914;7.526;2023-07-13T13:51:26;4.47;;;2.63;;
80621;SDS011;69980;51.914;7.526;2023-07-13T13:53:52;4.57;;;2.50;;
80621;SDS011;69980;51.914;7.526;2023-07-13T13:56:18;5.20;;;2.53;;
80621;SDS011;69980;51.914;7.526;2023-07-13T13:58:44;5.65;;;2.15;;
80621;SDS011;69980;51.914;7.526;2023-07-13T14:01:14;5.10;;;2.25;;
80621;SDS011;69980;51.914;7.526;2023-07-13T14:03:43;4.28;;;2.22;;
80621;SDS011;69980;51.914;7.526;2023-07-13T14:06:12;4.32;;;2.15;;
80621;SDS011;69980;51.914;7.526;2023-07-13T14:08:38;4.78;;;2.33;;
80621;SDS011;69980;51.914;7.526;2023-07-13T14:11:04;4.20;;;2.40;;
80621;SDS011;69980;51.914;7.526;2023-07-13T14:13:32;4.60;;;2.30;;
80621;SDS011;69980;51.914;7.526;2023-07-13T14:16:00;4.07;;;2.08;;
80621;SDS011;69980;51.914;7.526;2023-07-13T14:18:25;4.18;;;2.00;;
80621;SDS011;69980;51.914;7.526;2023-07-13T14:20:50;3.63;;;2.38;;
80621;SDS011;69980;51.914;7.526;2023-07-13T14:23:16;3.30;;;1.80;;
80621;SDS011;69980;51.914;7.526;2023-07-13T14:25:41;3.95;;;2.08;;
80621;SDS011;69980;51.914;7.526;2023-07-13T14:28:15;3.40;;;1.80;;
80621;SDS011;69980;51.914;7.526;2023-07-13T14:30:44;2.70;;;1.60;;
80621;SDS011;69980;51.914;7.526;2023-07-13T14:33:11;3.47;;;1.85;;
80621;SDS011;69980;51.914;7.526;2023-07-13T14:35:36;2.83;;;1.48;;
80621;SDS011;69980;51.914;7.526;2023-07-13T14:38:01;2.70;;;1.30;;
80621;SDS011;69980;51.914;7.526;2023-07-13T14:40:28;3.33;;;1.30;;
80621;SDS011;69980;51.914;7.526;2023-07-13T14:42:54;3.33;;;1.50;;
80621;SDS011;69980;51.914;7.526;2023-07-13T14:45:20;3.38;;;1.40;;
80621;SDS011;69980;51.914;7.526;2023-07-13T14:47:45;3.25;;;1.17;;
80621;SDS011;69980;51.914;7.526;2023-07-13T14:50:22;2.75;;;1.20;;
80621;SDS011;69980;51.914;7.526;2023-07-13T14:52:52;3.65;;;1.30;;
80621;SDS011;69980;51.914;7.526;2023-07-13T14:55:17;3.03;;;1.30;;
80621;SDS011;69980;51.914;7.526;2023-07-13T14:57:44;3.03;;;1.42;;
80621;SDS011;69980;51.914;7.526;2023-07-13T15:00:17;2.60;;;1.30;;
80621;SDS011;69980;51.914;7.526;2023-07-13T15:02:50;3.17;;;1.55;;
80621;SDS011;69980;51.914;7.526;2023-07-13T15:05:20;4.07;;;1.40;;
80621;SDS011;69980;51.914;7.526;2023-07-13T15:07:56;3.28;;;1.58;;
80621;SDS011;69980;51.914;7.526;2023-07-13T15:10:23;4.07;;;1.55;;
80621;SDS011;69980;51.914;7.526;2023-07-13T15:12:56;2.90;;;1.52;;
80621;SDS011;69980;51.914;7.526;2023-07-13T15:15:23;3.10;;;1.70;;
80621;SDS011;69980;51.914;7.526;2023-07-13T15:17:48;4.32;;;1.65;;
80621;SDS011;69980;51.914;7.526;2023-07-13T15:22:53;3.53;;;2.00;;
80621;SDS011;69980;51.914;7.526;2023-07-13T15:25:19;3.65;;;2.00;;
80621;SDS011;69980;51.914;7.526;2023-07-13T15:27:46;3.88;;;2.13;;
80621;SDS011;69980;51.914;7.526;2023-07-13T15:30:11;3.90;;;2.08;;
80621;SDS011;69980;51.914;7.526;2023-07-13T15:32:37;3.60;;;2.15;;
80621;SDS011;69980;51.914;7.526;2023-07-13T15:35:02;4.70;;;2.50;;
80621;SDS011;69980;51.914;7.526;2023-07-13T15:37:28;3.83;;;2.38;;
80621;SDS011;69980;51.914;7.526;2023-07-13T15:39:54;4.00;;;2.08;;